createdAt,value
2023-01-05T00:01:32.579Z,18.80
2023-01-05T00:03:59.883Z,23.70
2023-01-05T00:06:26.885Z,31.63
2023-01-05T00:08:53.806Z,27.83
2023-01-05T00:11:41.932Z,28.37
2023-01-05T00:14:49.238Z,24.37
2023-01-05T00:17:38.216Z,23.80
2023-01-05T00:20:29.900Z,25.20
2023-01-05T00:22:56.959Z,26.77
2023-01-05T00:25:29.653Z,26.80
2023-01-05T00:27:59.060Z,36.13
2023-01-05T00:30:40.508Z,40.80
2023-01-05T00:33:13.126Z,25.60
2023-01-05T00:35:40.223Z,26.80
2023-01-05T00:38:07.743Z,23.87
2023-01-05T00:40:36.166Z,31.73
2023-01-05T00:43:03.341Z,32.93
2023-01-05T00:45:30.289Z,28.37
2023-01-05T00:47:57.293Z,35.43
2023-01-05T00:50:24.475Z,28.97
2023-01-05T00:52:51.446Z,36.97
2023-01-05T00:55:18.916Z,28.00
2023-01-05T00:57:46.470Z,25.67
2023-01-05T01:00:17.710Z,32.73
2023-01-05T01:02:45.434Z,22.40
2023-01-05T01:05:12.923Z,35.13
2023-01-05T01:07:40.273Z,34.40
2023-01-05T01:10:08.406Z,29.47
2023-01-05T01:12:35.656Z,28.73
2023-01-05T01:15:02.601Z,31.67
2023-01-05T01:17:31.209Z,31.53
2023-01-05T01:19:58.147Z,29.67
2023-01-05T01:22:25.016Z,34.67
2023-01-05T01:24:52.773Z,28.63
2023-01-05T01:27:20.687Z,20.23
2023-01-05T01:29:48.484Z,27.23
2023-01-05T01:32:15.575Z,33.00
2023-01-05T01:37:08.988Z,28.10
2023-01-05T01:39:36.272Z,20.30
2023-01-05T01:42:03.388Z,36.83
2023-01-05T01:44:48.964Z,35.13
2023-01-05T01:47:22.618Z,45.17
2023-01-05T01:49:50.808Z,22.20
2023-01-05T01:52:19.564Z,27.13
2023-01-05T01:54:46.769Z,41.27
2023-01-05T01:57:15.408Z,21.97
2023-01-05T01:59:43.060Z,30.20
2023-01-05T02:02:12.811Z,21.97
2023-01-05T02:04:40.402Z,29.50
2023-01-05T02:07:10.807Z,30.50
2023-01-05T02:09:38.071Z,29.80
2023-01-05T02:12:11.382Z,28.27
2023-01-05T02:15:00.455Z,27.73
2023-01-05T02:18:02.025Z,43.33
2023-01-05T02:20:44.289Z,25.20
2023-01-05T02:23:45.314Z,26.10
2023-01-05T02:26:25.436Z,30.70
2023-01-05T02:29:27.156Z,24.20
2023-01-05T02:32:18.867Z,20.63
2023-01-05T02:35:24.409Z,32.73
2023-01-05T02:38:08.141Z,31.80
2023-01-05T02:40:41.345Z,34.80
2023-01-05T02:43:10.097Z,28.07
2023-01-05T02:45:37.048Z,37.63
2023-01-05T02:48:05.098Z,27.47
2023-01-05T02:51:01.477Z,22.20
2023-01-05T02:53:33.558Z,36.93
2023-01-05T02:56:17.928Z,23.70
2023-01-05T02:58:58.339Z,36.63
2023-01-05T03:01:35.257Z,30.33
2023-01-05T03:04:08.472Z,36.53
2023-01-05T03:06:38.839Z,29.87
2023-01-05T03:09:06.724Z,36.77
2023-01-05T03:12:09.968Z,26.47
2023-01-05T03:15:13.863Z,33.23
2023-01-05T03:17:47.864Z,42.67
2023-01-05T03:20:18.270Z,30.03
2023-01-05T03:23:05.886Z,24.67
2023-01-05T03:25:53.550Z,32.80
2023-01-05T03:28:45.267Z,23.23
2023-01-05T03:31:51.858Z,41.10
2023-01-05T03:35:19.103Z,26.87
2023-01-05T03:37:52.964Z,28.80
2023-01-05T03:40:30.906Z,42.10
2023-01-05T03:42:59.048Z,28.23
2023-01-05T03:45:33.932Z,29.30
2023-01-05T03:48:00.781Z,26.00
2023-01-05T03:50:28.747Z,30.40
2023-01-05T03:52:55.774Z,40.53
2023-01-05T03:55:23.182Z,28.30
2023-01-05T03:57:50.059Z,32.40
2023-01-05T04:00:17.276Z,36.40
2023-01-05T04:02:44.792Z,30.83
2023-01-05T04:05:11.819Z,34.27
2023-01-05T04:07:38.725Z,25.80
2023-01-05T04:10:06.357Z,21.77
2023-01-05T04:12:33.553Z,30.73
2023-01-05T04:15:00.653Z,32.30
2023-01-05T04:17:27.583Z,31.90
2023-01-05T04:19:54.474Z,23.13
2023-01-05T04:22:27.031Z,33.03
2023-01-05T04:24:54.365Z,33.47
2023-01-05T04:27:21.258Z,42.27
2023-01-05T04:29:48.462Z,32.30
2023-01-05T04:32:15.354Z,29.10
2023-01-05T04:34:42.288Z,32.77
2023-01-05T04:37:09.225Z,21.20
2023-01-05T04:39:36.520Z,22.83
2023-01-05T04:42:03.516Z,27.90
2023-01-05T04:44:30.386Z,29.43
2023-01-05T04:46:57.350Z,27.30
2023-01-05T04:49:24.372Z,20.30
2023-01-05T04:51:51.499Z,30.07
2023-01-05T04:54:18.587Z,27.03
2023-01-05T04:56:45.512Z,21.67
2023-01-05T04:59:12.335Z,28.63
2023-01-05T05:01:39.649Z,44.07
2023-01-05T05:04:06.745Z,24.13
2023-01-05T05:06:33.599Z,22.97
2023-01-05T05:09:00.673Z,26.37
2023-01-05T05:11:27.580Z,24.87
2023-01-05T05:13:54.453Z,32.60
2023-01-05T05:16:21.399Z,26.20
2023-01-05T05:18:48.404Z,25.90
2023-01-05T05:21:15.312Z,31.57
2023-01-05T05:23:42.401Z,31.33
2023-01-05T05:26:09.546Z,26.53
2023-01-05T05:28:36.471Z,29.50
2023-01-05T05:31:03.450Z,22.40
2023-01-05T05:33:30.316Z,32.03
2023-01-05T05:35:57.447Z,28.37
2023-01-05T05:38:24.336Z,28.80
2023-01-05T05:40:51.543Z,28.03
2023-01-05T05:43:18.505Z,40.43
2023-01-05T05:45:50.400Z,32.93
2023-01-05T05:48:18.617Z,25.10
2023-01-05T05:50:46.363Z,40.00
2023-01-05T05:53:13.588Z,31.33
2023-01-05T05:55:40.602Z,28.33
2023-01-05T05:58:07.884Z,29.67
2023-01-05T06:00:34.940Z,48.07
2023-01-05T06:03:02.027Z,27.97
2023-01-05T06:05:29.080Z,26.93
2023-01-05T06:07:55.964Z,33.43
2023-01-05T06:10:23.095Z,28.33
2023-01-05T06:12:49.991Z,21.73
2023-01-05T06:15:17.218Z,44.70
2023-01-05T06:17:46.071Z,23.67
2023-01-05T06:20:13.031Z,33.50
2023-01-05T06:22:40.577Z,30.83
2023-01-05T06:25:08.211Z,38.30
2023-01-05T06:27:35.175Z,25.23
2023-01-05T06:30:02.708Z,40.63
2023-01-05T06:32:29.647Z,24.73
2023-01-05T06:34:56.728Z,28.90
2023-01-05T06:37:23.619Z,25.93
2023-01-05T06:39:50.784Z,32.83
2023-01-05T06:42:23.076Z,28.67
2023-01-05T06:44:50.539Z,26.00
2023-01-05T06:47:17.744Z,34.67
2023-01-05T06:49:44.758Z,35.63
2023-01-05T06:52:16.220Z,23.03
2023-01-05T06:54:43.972Z,37.80
2023-01-05T06:57:11.458Z,21.43
2023-01-05T06:59:38.726Z,23.47
2023-01-05T07:02:06.241Z,37.67
2023-01-05T07:04:33.178Z,26.40
2023-01-05T07:07:00.170Z,28.77
2023-01-05T07:09:27.134Z,36.77
2023-01-05T07:11:53.955Z,35.67
2023-01-05T07:14:20.849Z,45.37
2023-01-05T07:16:47.972Z,36.23
2023-01-05T07:19:15.106Z,32.07
2023-01-05T07:21:42.227Z,29.53
2023-01-05T07:24:09.824Z,38.77
2023-01-05T07:26:36.757Z,35.80
2023-01-05T07:29:03.664Z,37.20
2023-01-05T07:31:30.661Z,33.93
2023-01-05T07:33:57.763Z,24.60
2023-01-05T07:36:25.393Z,42.20
2023-01-05T07:38:53.648Z,37.23
2023-01-05T07:41:20.537Z,25.27
2023-01-05T07:43:50.792Z,33.70
2023-01-05T07:46:19.227Z,36.20
2023-01-05T07:48:46.689Z,34.90
2023-01-05T07:51:14.068Z,29.53
2023-01-05T07:53:44.369Z,34.83
2023-01-05T07:56:12.894Z,27.53
2023-01-05T07:58:40.017Z,32.17
2023-01-05T08:01:10.511Z,23.87
2023-01-05T08:03:37.824Z,40.30
2023-01-05T08:06:10.593Z,24.60
2023-01-05T08:08:37.967Z,33.97
2023-01-05T08:11:06.854Z,34.50
2023-01-05T08:13:53.220Z,48.13
2023-01-05T08:16:20.481Z,27.90
2023-01-05T08:18:47.890Z,37.40
2023-01-05T08:21:14.911Z,35.50
2023-01-05T08:23:42.206Z,43.30
2023-01-05T08:26:16.101Z,34.07
2023-01-05T08:28:43.866Z,31.87
2023-01-05T08:31:26.298Z,34.40
2023-01-05T08:34:01.416Z,33.43
2023-01-05T08:36:28.390Z,31.17
2023-01-05T08:38:55.696Z,43.60
2023-01-05T08:41:31.225Z,34.20
2023-01-05T08:43:59.839Z,34.10
2023-01-05T08:46:29.161Z,40.77
2023-01-05T08:48:58.777Z,36.20
2023-01-05T08:51:26.434Z,29.90
2023-01-05T08:53:54.305Z,34.73
2023-01-05T08:56:21.984Z,27.30
2023-01-05T08:58:48.835Z,32.23
2023-01-05T09:01:18.136Z,32.63
2023-01-05T09:03:45.752Z,27.03
2023-01-05T09:06:14.167Z,36.77
2023-01-05T09:08:42.462Z,39.00
2023-01-05T09:11:13.961Z,33.77
2023-01-05T09:13:42.029Z,45.77
2023-01-05T09:16:12.488Z,38.87
2023-01-05T09:18:41.076Z,25.73
2023-01-05T09:21:09.473Z,38.03
2023-01-05T09:23:37.380Z,37.87
2023-01-05T09:26:09.301Z,22.57
2023-01-05T09:28:37.401Z,37.30
2023-01-05T09:31:19.314Z,42.20
2023-01-05T09:33:47.226Z,34.53
2023-01-05T09:36:16.527Z,36.53
2023-01-05T09:38:46.960Z,23.83
2023-01-05T09:41:47.599Z,42.57
2023-01-05T09:44:30.335Z,28.60
2023-01-05T09:47:03.330Z,49.37
2023-01-05T09:49:32.471Z,24.17
2023-01-05T09:52:02.564Z,31.43
2023-01-05T09:54:33.292Z,36.73
2023-01-05T09:57:09.452Z,27.97
2023-01-05T09:59:41.702Z,24.90
2023-01-05T10:02:21.362Z,28.80
2023-01-05T10:04:50.401Z,24.43
2023-01-05T10:07:26.116Z,31.80
2023-01-05T10:09:55.370Z,26.13
2023-01-05T10:12:48.441Z,26.70
2023-01-05T10:15:21.663Z,26.93
2023-01-05T10:17:49.013Z,33.53
2023-01-05T10:20:36.432Z,34.07
2023-01-05T10:23:30.644Z,32.17
2023-01-05T10:25:57.488Z,43.27
2023-01-05T10:28:36.503Z,32.63
2023-01-05T10:31:13.155Z,39.73
2023-01-05T10:34:05.101Z,37.00
2023-01-05T10:40:03.289Z,30.93
2023-01-05T10:43:01.271Z,36.13
2023-01-05T10:45:30.798Z,39.77
2023-01-05T10:48:00.097Z,31.53
2023-01-05T10:50:36.163Z,33.50
2023-01-05T10:53:18.897Z,32.13
2023-01-05T10:56:00.774Z,37.97
2023-01-05T10:58:31.059Z,36.67
2023-01-05T11:01:05.641Z,44.80
2023-01-05T11:04:15.309Z,31.37
2023-01-05T11:06:33.176Z,46.47
2023-01-05T11:09:23.804Z,42.23
2023-01-05T11:12:05.366Z,37.87
2023-01-05T11:14:42.271Z,36.70
2023-01-05T11:17:17.227Z,32.83
2023-01-05T11:19:47.369Z,25.77
2023-01-05T11:22:48.350Z,18.63
2023-01-05T11:25:27.417Z,27.93
2023-01-05T11:28:09.503Z,35.07
2023-01-05T11:30:37.477Z,25.53
2023-01-05T11:33:26.526Z,31.40
2023-01-05T11:35:53.892Z,33.73
2023-01-05T11:38:25.174Z,39.73
2023-01-05T11:40:52.648Z,38.33
2023-01-05T11:43:22.104Z,27.53
2023-01-05T11:46:02.323Z,27.43
2023-01-05T11:48:34.334Z,23.93
2023-01-05T11:51:03.361Z,26.37
2023-01-05T11:53:33.357Z,28.33
2023-01-05T11:56:21.679Z,27.77
2023-01-05T11:58:57.948Z,23.63
2023-01-05T12:01:46.712Z,31.67
2023-01-05T12:04:23.055Z,38.87
2023-01-05T12:07:07.156Z,25.60
2023-01-05T12:09:41.980Z,34.43
2023-01-05T12:12:31.864Z,33.33
2023-01-05T12:15:04.680Z,35.30
2023-01-05T12:17:59.514Z,25.23
2023-01-05T12:20:36.912Z,22.17
2023-01-05T12:23:20.938Z,28.33
2023-01-05T12:25:57.779Z,35.33
2023-01-05T12:30:02.117Z,27.63
2023-01-05T12:35:00.630Z,26.87
2023-01-05T12:37:59.068Z,22.63
2023-01-05T12:41:05.098Z,37.60
2023-01-05T12:44:02.293Z,19.70
2023-01-05T12:46:32.309Z,21.10
2023-01-05T12:49:05.908Z,30.67
2023-01-05T12:51:50.521Z,28.63
2023-01-05T12:54:30.841Z,30.70
2023-01-05T12:57:04.619Z,22.73
2023-01-05T12:59:56.487Z,30.33
2023-01-05T13:02:24.070Z,26.80
2023-01-05T13:05:21.461Z,20.07
2023-01-05T13:08:02.442Z,32.50
2023-01-05T13:10:44.004Z,33.93
2023-01-05T13:13:20.661Z,27.13
2023-01-05T13:16:15.507Z,28.03
2023-01-05T13:18:49.247Z,25.57
2023-01-05T13:21:17.803Z,27.77
2023-01-05T13:23:57.353Z,25.20
2023-01-05T13:26:24.212Z,24.90
2023-01-05T13:28:55.979Z,23.03
2023-01-05T13:31:53.434Z,20.70
2023-01-05T13:34:57.958Z,23.10
2023-01-05T13:37:39.270Z,28.20
2023-01-05T13:40:24.894Z,25.07
2023-01-05T13:43:15.740Z,17.07
2023-01-05T13:45:43.170Z,23.10
2023-01-05T13:50:44.741Z,32.97
2023-01-05T13:53:18.108Z,25.53
2023-01-05T13:55:47.854Z,21.93
2023-01-05T13:58:50.289Z,25.83
2023-01-05T14:01:38.837Z,19.30
2023-01-05T14:04:15.914Z,26.10
2023-01-05T14:06:45.634Z,18.40
2023-01-05T14:09:24.647Z,29.23
2023-01-05T14:12:12.644Z,29.40
2023-01-05T14:15:12.983Z,24.50
2023-01-05T14:17:52.765Z,21.13
2023-01-05T14:20:44.646Z,33.90
2023-01-05T14:23:23.903Z,31.87
2023-01-05T14:26:08.646Z,22.00
2023-01-05T14:28:39.021Z,25.93
2023-01-05T14:31:13.771Z,19.47
2023-01-05T14:33:52.875Z,32.63
2023-01-05T14:36:39.145Z,27.13
2023-01-05T14:39:29.598Z,20.47
2023-01-05T14:42:07.255Z,26.50
2023-01-05T14:44:42.570Z,30.30
2023-01-05T14:47:10.802Z,19.27
2023-01-05T14:49:51.378Z,27.53
2023-01-05T14:52:40.594Z,21.83
2023-01-05T14:55:27.181Z,30.27
2023-01-05T14:58:06.316Z,26.80
2023-01-05T15:01:03.181Z,15.43
2023-01-05T15:03:38.674Z,26.07
2023-01-05T15:06:41.985Z,19.60
2023-01-05T15:09:27.470Z,33.37
2023-01-05T15:12:19.077Z,21.47
2023-01-05T15:14:58.508Z,23.47
2023-01-05T15:17:41.295Z,23.83
2023-01-05T15:20:35.546Z,19.07
2023-01-05T15:23:38.580Z,46.03
2023-01-05T15:26:08.421Z,24.47
2023-01-05T15:28:50.728Z,35.37
2023-01-05T15:31:38.751Z,20.40
2023-01-05T15:34:24.279Z,28.47
2023-01-05T15:37:11.419Z,30.20
2023-01-05T15:39:55.471Z,31.30
2023-01-05T15:42:51.185Z,30.67
2023-01-05T15:45:25.637Z,20.30
2023-01-05T15:47:53.390Z,25.60
2023-01-05T15:50:38.856Z,24.60
2023-01-05T15:53:05.755Z,27.90
2023-01-05T15:55:32.547Z,16.43
2023-01-05T15:58:06.537Z,21.23
2023-01-05T16:00:36.251Z,35.97
2023-01-05T16:03:21.529Z,30.67
2023-01-05T16:05:48.923Z,21.20
2023-01-05T16:08:17.123Z,29.17
2023-01-05T16:10:53.024Z,33.27
2023-01-05T16:13:34.695Z,27.37
2023-01-05T16:16:05.557Z,36.87
2023-01-05T16:18:40.631Z,25.40
2023-01-05T16:21:12.931Z,34.07
2023-01-05T16:23:48.796Z,25.50
2023-01-05T16:26:18.397Z,44.20
2023-01-05T16:28:45.861Z,30.70
2023-01-05T16:31:49.398Z,35.80
2023-01-05T16:34:19.731Z,36.70
2023-01-05T16:37:15.057Z,28.40
2023-01-05T16:39:44.896Z,30.03
2023-01-05T16:42:35.512Z,47.23
2023-01-05T16:45:02.677Z,34.80
2023-01-05T16:47:38.508Z,49.77
2023-01-05T16:50:20.674Z,49.23
2023-01-05T16:53:00.125Z,42.93
2023-01-05T16:55:35.803Z,35.33
2023-01-05T16:58:06.094Z,33.23
2023-01-05T17:00:34.969Z,34.30
2023-01-05T17:03:04.902Z,32.37
2023-01-05T17:05:33.795Z,36.03
2023-01-05T17:08:20.975Z,45.77
2023-01-05T17:10:49.052Z,37.27
2023-01-05T17:13:23.415Z,42.67
2023-01-05T17:15:52.412Z,32.90
2023-01-05T17:18:28.687Z,35.43
2023-01-05T17:20:57.600Z,27.80
2023-01-05T17:23:31.997Z,36.70
2023-01-05T17:26:04.601Z,45.00
2023-01-05T17:28:31.616Z,35.17
2023-01-05T17:30:58.553Z,34.50
2023-01-05T17:33:25.576Z,41.53
2023-01-05T17:35:52.809Z,37.00
2023-01-05T17:38:19.678Z,21.20
2023-01-05T17:40:46.563Z,46.20
2023-01-05T17:43:14.384Z,31.97
2023-01-05T17:45:43.795Z,30.87
2023-01-05T17:50:39.505Z,47.43
2023-01-05T17:53:06.386Z,33.77
2023-01-05T17:55:33.632Z,33.80
2023-01-05T17:58:01.771Z,38.17
2023-01-05T18:00:30.842Z,39.00
2023-01-05T18:02:57.815Z,49.50
2023-01-05T18:05:24.775Z,31.27
2023-01-05T18:07:51.688Z,37.93
2023-01-05T18:10:25.935Z,35.70
2023-01-05T18:12:55.317Z,33.37
2023-01-05T18:15:22.223Z,42.67
2023-01-05T18:17:49.150Z,34.20
2023-01-05T18:20:19.914Z,50.87
2023-01-05T18:22:49.139Z,28.60
2023-01-05T18:25:17.074Z,45.10
2023-01-05T18:27:43.999Z,33.00
2023-01-05T18:30:12.203Z,32.83
2023-01-05T18:32:39.469Z,30.83
2023-01-05T18:35:09.877Z,27.33
2023-01-05T18:37:38.414Z,40.13
2023-01-05T18:40:06.162Z,26.80
2023-01-05T18:42:33.503Z,35.30
2023-01-05T18:45:08.968Z,29.37
2023-01-05T18:47:46.631Z,38.33
2023-01-05T18:50:13.653Z,27.90
2023-01-05T18:52:40.543Z,42.53
2023-01-05T18:55:07.664Z,25.40
2023-01-05T18:57:35.994Z,23.57
2023-01-05T19:00:03.482Z,29.83
2023-01-05T19:02:30.432Z,28.50
2023-01-05T19:04:57.357Z,24.70
2023-01-05T19:07:24.627Z,27.23
2023-01-05T19:09:52.441Z,24.10
2023-01-05T19:12:19.333Z,25.07
2023-01-05T19:14:46.140Z,27.97
2023-01-05T19:17:13.496Z,23.57
2023-01-05T19:19:41.049Z,24.00
2023-01-05T19:22:07.961Z,33.03
2023-01-05T19:24:35.564Z,26.17
2023-01-05T19:27:02.489Z,26.53
2023-01-05T19:29:29.443Z,28.40
2023-01-05T19:31:56.291Z,27.40
2023-01-05T19:34:23.195Z,27.57
2023-01-05T19:36:50.166Z,31.27
2023-01-05T19:39:19.380Z,28.63
2023-01-05T19:41:48.263Z,24.90
2023-01-05T19:44:20.331Z,26.87
2023-01-05T19:46:53.290Z,23.90
2023-01-05T19:49:23.332Z,24.90
2023-01-05T19:51:51.217Z,26.73
2023-01-05T19:54:18.597Z,15.53
2023-01-05T19:56:46.105Z,21.37
2023-01-05T19:59:18.810Z,25.10
2023-01-05T20:01:46.720Z,26.27
2023-01-05T20:04:15.357Z,25.93
2023-01-05T20:06:44.636Z,26.77
2023-01-05T20:09:14.339Z,34.73
2023-01-05T20:11:43.772Z,34.67
2023-01-05T20:14:15.082Z,22.90
2023-01-05T20:16:45.290Z,39.27
2023-01-05T20:19:12.246Z,30.53
2023-01-05T20:21:39.776Z,34.97
2023-01-05T20:24:14.141Z,25.20
2023-01-05T20:26:42.140Z,28.87
2023-01-05T20:29:10.432Z,24.07
2023-01-05T20:31:43.913Z,33.67
2023-01-05T20:34:15.536Z,24.33
2023-01-05T20:36:43.124Z,23.60
2023-01-05T20:39:12.276Z,22.37
2023-01-05T20:41:41.649Z,25.50
2023-01-05T20:44:09.685Z,22.10
2023-01-05T20:46:41.712Z,23.60
2023-01-05T20:49:08.874Z,19.50
2023-01-05T20:51:36.351Z,18.33
2023-01-05T20:54:05.960Z,23.53
2023-01-05T20:56:38.781Z,15.80
2023-01-05T20:59:17.068Z,24.70
2023-01-05T21:01:45.900Z,14.10
2023-01-05T21:04:13.356Z,12.97
2023-01-05T21:06:41.201Z,12.50
2023-01-05T21:09:09.085Z,12.20
2023-01-05T21:11:37.648Z,13.37
2023-01-05T21:14:06.837Z,11.07
2023-01-05T21:16:37.287Z,13.13
2023-01-05T21:19:05.281Z,14.30
2023-01-05T21:21:32.295Z,13.33
2023-01-05T21:23:59.417Z,14.10
2023-01-05T21:26:26.572Z,10.53
2023-01-05T21:28:54.388Z,12.27
2023-01-05T21:31:25.180Z,7.33
2023-01-05T21:33:53.020Z,8.40
2023-01-05T21:36:26.558Z,19.57
2023-01-05T21:39:01.624Z,9.40
2023-01-05T21:41:52.278Z,8.37
2023-01-05T21:44:20.346Z,10.83
2023-01-05T21:46:48.401Z,7.20
2023-01-05T21:49:16.182Z,8.87
2023-01-05T21:52:01.513Z,7.60
2023-01-05T21:54:47.161Z,4.27
2023-01-05T21:57:14.692Z,5.33
2023-01-05T21:59:42.489Z,10.10
2023-01-05T22:02:10.401Z,4.50
2023-01-05T22:04:37.297Z,10.60
2023-01-05T22:07:07.327Z,4.13
2023-01-05T22:09:38.201Z,7.77
2023-01-05T22:12:09.651Z,9.47
2023-01-05T22:14:39.562Z,5.40
2023-01-05T22:17:07.960Z,3.47
2023-01-05T22:19:35.849Z,5.33
2023-01-05T22:22:03.149Z,9.70
2023-01-05T22:24:30.123Z,6.77
2023-01-05T22:26:57.104Z,6.17
2023-01-05T22:29:24.293Z,4.13
2023-01-05T22:31:51.239Z,7.60
2023-01-05T22:34:18.486Z,4.93
2023-01-05T22:36:45.424Z,11.13
2023-01-05T22:39:12.878Z,12.30
2023-01-05T22:41:39.790Z,3.57
2023-01-05T22:44:07.401Z,6.60
2023-01-05T22:46:34.303Z,10.20
2023-01-05T22:49:01.816Z,14.53
2023-01-05T22:51:35.285Z,9.23
2023-01-05T22:54:03.461Z,6.20
2023-01-05T22:56:31.950Z,3.43
2023-01-05T22:59:00.164Z,6.40
2023-01-05T23:01:34.820Z,4.83
2023-01-05T23:04:03.147Z,4.10
2023-01-05T23:06:30.601Z,5.50
2023-01-05T23:08:58.169Z,4.43
2023-01-05T23:11:33.265Z,7.07
2023-01-05T23:14:02.281Z,4.40
2023-01-05T23:16:29.961Z,5.40
2023-01-05T23:18:57.445Z,9.67
2023-01-05T23:21:26.725Z,12.37
2023-01-05T23:23:55.955Z,10.87
2023-01-05T23:26:24.066Z,6.73
2023-01-05T23:28:51.993Z,7.67
2023-01-05T23:31:19.433Z,8.47
2023-01-05T23:33:47.815Z,9.53
2023-01-05T23:36:16.315Z,8.67
2023-01-05T23:38:43.932Z,6.73
2023-01-05T23:41:12.455Z,9.37
2023-01-05T23:43:41.613Z,9.57
2023-01-05T23:46:16.796Z,8.87
2023-01-05T23:48:44.480Z,11.67
2023-01-05T23:51:16.610Z,8.40
2023-01-05T23:53:49.299Z,8.00
2023-01-05T23:56:19.444Z,8.80
2023-01-05T23:58:47.532Z,9.00
